createdAt,value
2023-09-17T00:01:37.417Z,18.62
2023-09-17T00:04:43.072Z,18.55
2023-09-17T00:07:50.537Z,21.75
2023-09-17T00:10:57.830Z,17.10
2023-09-17T00:14:03.961Z,21.77
2023-09-17T00:17:10.087Z,17.23
2023-09-17T00:20:18.667Z,19.48
2023-09-17T00:23:25.053Z,18.67
2023-09-17T00:26:30.796Z,17.05
2023-09-17T00:29:37.845Z,19.50
2023-09-17T00:32:43.017Z,18.32
2023-09-17T00:35:49.767Z,17.85
2023-09-17T00:38:55.937Z,20.27
2023-09-17T00:42:01.590Z,18.42
2023-09-17T00:45:07.957Z,18.25
2023-09-17T00:48:13.845Z,17.60
2023-09-17T00:51:19.434Z,17.70
2023-09-17T00:54:25.532Z,19.77
2023-09-17T00:57:30.764Z,20.92
2023-09-17T01:00:36.617Z,19.27
2023-09-17T01:03:42.237Z,20.12
2023-09-17T01:06:50.180Z,21.20
2023-09-17T01:09:55.820Z,17.95
2023-09-17T01:13:01.186Z,17.20
2023-09-17T01:16:07.466Z,19.42
2023-09-17T01:19:13.096Z,19.25
2023-09-17T01:22:25.026Z,17.00
2023-09-17T01:25:57.074Z,19.77
2023-09-17T01:29:04.047Z,18.82
2023-09-17T01:32:09.190Z,20.08
2023-09-17T01:35:15.441Z,21.00
2023-09-17T01:38:21.740Z,18.75
2023-09-17T01:41:28.512Z,19.35
2023-09-17T01:44:37.026Z,20.27
2023-09-17T01:47:44.011Z,19.37
2023-09-17T01:50:50.763Z,21.35
2023-09-17T01:53:57.945Z,19.42
2023-09-17T01:56:58.197Z,19.10
2023-09-17T02:00:03.841Z,19.17
2023-09-17T02:03:11.780Z,20.88
2023-09-17T02:06:18.220Z,20.45
2023-09-17T02:09:25.909Z,17.80
2023-09-17T02:12:31.972Z,19.17
2023-09-17T02:15:38.641Z,19.42
2023-09-17T02:18:44.289Z,20.23
2023-09-17T02:21:49.948Z,20.82
2023-09-17T02:24:56.729Z,26.80
2023-09-17T02:28:02.781Z,21.10
2023-09-17T02:31:08.135Z,21.20
2023-09-17T02:34:14.338Z,20.25
2023-09-17T02:37:22.098Z,21.68
2023-09-17T02:40:32.068Z,19.73
2023-09-17T02:43:38.559Z,20.35
2023-09-17T02:46:45.029Z,18.95
2023-09-17T02:49:51.083Z,20.62
2023-09-17T02:52:57.014Z,20.12
2023-09-17T02:56:03.282Z,22.20
2023-09-17T02:59:09.338Z,23.10
2023-09-17T03:02:14.921Z,22.62
2023-09-17T03:05:23.903Z,18.95
2023-09-17T03:08:30.708Z,21.82
2023-09-17T03:11:36.072Z,20.70
2023-09-17T03:14:43.323Z,21.73
2023-09-17T03:17:52.276Z,21.40
2023-09-17T03:21:01.199Z,18.95
2023-09-17T03:24:07.039Z,20.88
2023-09-17T03:27:12.192Z,21.52
2023-09-17T03:30:20.089Z,23.27
2023-09-17T03:33:27.288Z,20.92
2023-09-17T03:36:34.173Z,23.75
2023-09-17T03:39:40.940Z,21.52
2023-09-17T03:42:46.081Z,20.55
2023-09-17T03:45:53.436Z,19.30
2023-09-17T03:48:59.863Z,22.90
2023-09-17T03:52:06.912Z,22.48
2023-09-17T03:55:16.221Z,24.25
2023-09-17T03:58:21.823Z,20.05
2023-09-17T04:01:28.477Z,19.92
2023-09-17T04:04:33.421Z,21.02
2023-09-17T04:07:40.137Z,25.30
2023-09-17T04:10:47.024Z,21.15
2023-09-17T04:13:53.314Z,21.82
2023-09-17T04:16:59.410Z,19.90
2023-09-17T04:20:05.595Z,21.97
2023-09-17T04:23:15.236Z,22.70
2023-09-17T04:26:20.302Z,19.82
2023-09-17T04:29:27.222Z,23.42
2023-09-17T04:32:32.547Z,24.12
2023-09-17T04:35:39.025Z,20.60
2023-09-17T04:38:44.378Z,20.12
2023-09-17T04:41:50.643Z,17.70
2023-09-17T04:44:58.498Z,22.30
2023-09-17T04:48:04.412Z,22.80
2023-09-17T04:51:09.547Z,21.93
2023-09-17T04:54:15.214Z,23.60
2023-09-17T04:57:21.063Z,21.07
2023-09-17T05:00:28.902Z,17.95
2023-09-17T05:03:34.210Z,22.13
2023-09-17T05:06:40.169Z,20.92
2023-09-17T05:09:46.325Z,24.12
2023-09-17T05:12:51.903Z,20.68
2023-09-17T05:15:57.725Z,23.67
2023-09-17T05:19:02.610Z,22.52
2023-09-17T05:22:08.504Z,24.00
2023-09-17T05:25:16.511Z,23.25
2023-09-17T05:28:22.197Z,23.60
2023-09-17T05:31:29.121Z,31.02
2023-09-17T05:34:35.773Z,23.10
2023-09-17T05:37:42.410Z,20.80
2023-09-17T05:40:48.833Z,21.52
2023-09-17T05:43:55.366Z,23.77
2023-09-17T05:47:02.958Z,19.07
2023-09-17T05:50:09.190Z,23.38
2023-09-17T05:53:16.607Z,25.77
2023-09-17T05:56:23.588Z,22.25
2023-09-17T05:59:32.390Z,21.52
2023-09-17T06:02:39.579Z,25.23
2023-09-17T06:05:48.307Z,20.90
2023-09-17T06:08:57.859Z,21.12
2023-09-17T06:12:05.169Z,20.17
2023-09-17T06:15:12.243Z,21.95
2023-09-17T06:18:19.648Z,21.65
2023-09-17T06:21:24.882Z,23.20
2023-09-17T06:24:31.149Z,24.05
2023-09-17T06:27:43.577Z,19.75
2023-09-17T06:30:50.870Z,22.30
2023-09-17T06:33:56.818Z,19.95
2023-09-17T06:37:04.403Z,23.75
2023-09-17T06:40:11.398Z,15.70
2023-09-17T06:43:17.250Z,19.77
2023-09-17T06:46:22.959Z,18.87
2023-09-17T06:49:30.842Z,20.68
2023-09-17T06:52:37.744Z,21.97
2023-09-17T06:55:44.126Z,19.07
2023-09-17T06:58:52.954Z,18.50
2023-09-17T07:01:59.777Z,21.55
2023-09-17T07:05:07.851Z,22.05
2023-09-17T07:08:15.245Z,18.70
2023-09-17T07:11:20.845Z,17.15
2023-09-17T07:14:27.496Z,16.40
2023-09-17T07:17:35.147Z,21.73
2023-09-17T07:20:41.535Z,18.20
2023-09-17T07:23:50.612Z,21.07
2023-09-17T07:26:56.573Z,17.77
2023-09-17T07:30:02.093Z,15.00
2023-09-17T07:33:07.431Z,20.43
2023-09-17T07:36:15.159Z,18.35
2023-09-17T07:39:20.156Z,18.07
2023-09-17T07:42:24.890Z,15.08
2023-09-17T07:45:30.869Z,16.55
2023-09-17T07:48:37.021Z,15.38
2023-09-17T07:51:42.175Z,14.90
2023-09-17T07:54:55.952Z,15.63
2023-09-17T07:58:03.182Z,17.82
2023-09-17T08:01:11.294Z,14.07
2023-09-17T08:04:17.867Z,14.47
2023-09-17T08:07:25.061Z,14.53
2023-09-17T08:10:30.982Z,11.18
2023-09-17T08:13:35.814Z,17.23
2023-09-17T08:16:44.327Z,12.33
2023-09-17T08:19:50.377Z,13.93
2023-09-17T08:22:57.380Z,11.95
2023-09-17T08:26:03.270Z,10.55
2023-09-17T08:29:13.929Z,10.72
2023-09-17T08:32:21.837Z,9.38
2023-09-17T08:35:27.409Z,12.13
2023-09-17T08:38:33.201Z,15.08
2023-09-17T08:41:41.446Z,10.85
2023-09-17T08:44:47.824Z,10.95
2023-09-17T08:47:54.701Z,9.38
2023-09-17T08:51:06.894Z,11.35
2023-09-17T08:54:28.124Z,9.98
2023-09-17T08:57:36.637Z,7.55
2023-09-17T09:00:41.930Z,8.65
2023-09-17T09:03:49.634Z,10.38
2023-09-17T09:06:56.722Z,11.45
2023-09-17T09:10:02.544Z,11.53
2023-09-17T09:13:09.197Z,8.83
2023-09-17T09:16:15.841Z,12.35
2023-09-17T09:19:20.839Z,9.10
2023-09-17T09:22:27.985Z,8.70
2023-09-17T09:25:36.901Z,9.98
2023-09-17T09:28:48.978Z,9.30
2023-09-17T09:31:56.497Z,7.87
2023-09-17T09:35:03.226Z,10.38
2023-09-17T09:38:09.523Z,9.28
2023-09-17T09:41:16.721Z,7.15
2023-09-17T09:44:23.874Z,7.05
2023-09-17T09:47:31.372Z,6.00
2023-09-17T09:50:41.390Z,8.05
2023-09-17T09:53:47.748Z,6.05
2023-09-17T09:56:59.579Z,7.10
2023-09-17T10:00:11.057Z,9.05
2023-09-17T10:03:17.733Z,9.88
2023-09-17T10:06:23.780Z,7.35
2023-09-17T10:09:30.062Z,7.30
2023-09-17T10:12:36.698Z,6.55
2023-09-17T10:15:42.271Z,6.25
2023-09-17T10:18:51.400Z,5.67
2023-09-17T10:21:57.679Z,8.48
2023-09-17T10:25:03.601Z,7.70
2023-09-17T10:28:09.125Z,8.20
2023-09-17T10:31:15.019Z,13.40
2023-09-17T10:34:22.217Z,8.30
2023-09-17T10:37:27.018Z,6.30
2023-09-17T10:40:32.815Z,5.75
2023-09-17T10:43:37.384Z,6.45
2023-09-17T10:46:47.346Z,7.37
2023-09-17T10:49:55.295Z,6.17
2023-09-17T10:53:00.312Z,6.10
2023-09-17T10:56:24.707Z,12.18
2023-09-17T10:59:31.491Z,7.67
2023-09-17T11:02:38.943Z,7.12
2023-09-17T11:05:44.812Z,8.15
2023-09-17T11:08:51.105Z,5.25
2023-09-17T11:11:56.862Z,5.72
2023-09-17T11:15:02.854Z,8.10
2023-09-17T11:18:16.130Z,11.70
2023-09-17T11:21:23.463Z,6.12
2023-09-17T11:24:31.274Z,6.92
2023-09-17T11:27:36.786Z,6.60
2023-09-17T11:30:42.555Z,7.03
2023-09-17T11:33:47.123Z,6.70
2023-09-17T11:36:54.989Z,6.10
2023-09-17T11:40:08.738Z,7.05
2023-09-17T11:43:15.354Z,5.12
2023-09-17T11:46:21.573Z,8.00
2023-09-17T11:49:31.139Z,5.60
2023-09-17T11:52:38.858Z,7.35
2023-09-17T11:55:44.261Z,6.05
2023-09-17T11:58:52.637Z,5.40
2023-09-17T12:02:08.927Z,9.08
2023-09-17T12:05:15.397Z,7.28
2023-09-17T12:08:21.561Z,9.10
2023-09-17T12:11:34.911Z,5.45
2023-09-17T12:14:41.385Z,6.60
2023-09-17T12:17:51.854Z,6.30
2023-09-17T12:21:10.560Z,5.35
2023-09-17T12:24:20.068Z,7.22
2023-09-17T12:27:42.845Z,7.22
2023-09-17T12:30:50.452Z,5.78
2023-09-17T12:33:56.330Z,7.80
2023-09-17T12:37:03.220Z,6.10
2023-09-17T12:40:14.654Z,6.20
2023-09-17T12:43:20.836Z,7.22
2023-09-17T12:46:27.372Z,5.97
2023-09-17T12:49:35.123Z,5.22
2023-09-17T12:52:44.183Z,6.25
2023-09-17T12:55:49.512Z,6.35
2023-09-17T12:58:55.008Z,8.80
2023-09-17T13:02:09.287Z,6.83
2023-09-17T13:05:17.638Z,6.60
2023-09-17T13:08:27.094Z,7.40
2023-09-17T13:11:32.901Z,8.18
2023-09-17T13:14:40.511Z,11.60
2023-09-17T13:17:47.521Z,15.20
2023-09-17T13:20:54.453Z,5.72
2023-09-17T13:24:01.720Z,8.43
2023-09-17T13:27:08.266Z,7.67
2023-09-17T13:30:14.764Z,7.62
2023-09-17T13:33:22.939Z,11.65
2023-09-17T13:36:30.001Z,7.72
2023-09-17T13:39:35.296Z,7.20
2023-09-17T13:42:39.984Z,9.00
2023-09-17T13:45:46.573Z,7.35
2023-09-17T13:48:53.316Z,7.47
2023-09-17T13:51:59.820Z,6.72
2023-09-17T13:55:06.000Z,9.33
2023-09-17T13:58:12.579Z,9.13
2023-09-17T14:01:20.273Z,6.37
2023-09-17T14:04:26.430Z,6.95
2023-09-17T14:07:32.441Z,10.93
2023-09-17T14:10:37.504Z,8.95
2023-09-17T14:13:44.476Z,7.97
2023-09-17T14:16:47.890Z,8.13
2023-09-17T14:19:52.499Z,6.53
2023-09-17T14:22:59.097Z,7.78
2023-09-17T14:26:05.038Z,5.17
2023-09-17T14:29:10.311Z,8.00
2023-09-17T14:32:15.656Z,7.15
2023-09-17T14:35:22.224Z,9.58
2023-09-17T14:38:27.055Z,8.55
2023-09-17T14:41:32.147Z,7.97
2023-09-17T14:44:39.646Z,9.50
2023-09-17T14:47:52.098Z,7.22
2023-09-17T14:50:59.456Z,9.48
2023-09-17T14:54:05.660Z,8.98
2023-09-17T14:57:13.712Z,6.42
2023-09-17T15:00:25.614Z,11.15
2023-09-17T15:03:33.929Z,10.18
2023-09-17T15:06:39.501Z,9.13
2023-09-17T15:09:45.876Z,8.28
2023-09-17T15:12:55.186Z,11.38
2023-09-17T15:16:06.222Z,7.47
2023-09-17T15:19:14.089Z,10.25
2023-09-17T15:22:20.326Z,8.10
2023-09-17T15:25:27.382Z,7.03
2023-09-17T15:28:35.318Z,8.00
2023-09-17T15:31:42.740Z,7.85
2023-09-17T15:34:48.926Z,12.35
2023-09-17T15:37:55.796Z,13.55
2023-09-17T15:41:05.782Z,8.28
2023-09-17T15:44:14.617Z,9.30
2023-09-17T15:47:19.675Z,15.50
2023-09-17T15:50:26.895Z,7.20
2023-09-17T15:53:32.322Z,9.33
2023-09-17T15:56:37.243Z,10.78
2023-09-17T15:59:42.141Z,15.08
2023-09-17T16:02:49.144Z,10.40
2023-09-17T16:05:56.395Z,21.97
2023-09-17T16:09:02.770Z,19.62
2023-09-17T16:12:08.280Z,20.10
2023-09-17T16:15:14.419Z,21.37
2023-09-17T16:18:20.849Z,21.00
2023-09-17T16:21:27.094Z,22.22
2023-09-17T16:24:33.983Z,27.75
2023-09-17T16:27:39.377Z,34.25
2023-09-17T16:30:45.304Z,19.30
2023-09-17T16:33:52.919Z,28.70
2023-09-17T16:36:59.644Z,30.48
2023-09-17T16:40:05.694Z,32.98
2023-09-17T16:43:12.309Z,33.10
2023-09-17T16:46:20.298Z,34.53
2023-09-17T16:49:24.911Z,35.43
2023-09-17T16:52:32.353Z,34.40
2023-09-17T16:55:38.770Z,30.88
2023-09-17T16:58:45.813Z,31.17
2023-09-17T17:01:51.281Z,31.90
2023-09-17T17:04:58.393Z,31.40
2023-09-17T17:08:03.803Z,26.37
2023-09-17T17:11:10.776Z,27.98
2023-09-17T17:14:17.156Z,28.23
2023-09-17T17:17:23.703Z,29.45
2023-09-17T17:20:31.870Z,31.95
2023-09-17T17:23:37.653Z,31.25
2023-09-17T17:26:43.242Z,28.30
2023-09-17T17:29:51.585Z,29.30
2023-09-17T17:32:56.821Z,28.67
2023-09-17T17:36:03.004Z,25.95
2023-09-17T17:39:11.327Z,23.35
2023-09-17T17:42:16.757Z,33.92
2023-09-17T17:45:22.847Z,33.58
2023-09-17T17:48:28.865Z,42.90
2023-09-17T17:51:33.795Z,46.10
2023-09-17T17:54:40.495Z,42.10
2023-09-17T17:57:46.956Z,33.38
2023-09-17T18:00:53.579Z,38.08
2023-09-17T18:04:00.867Z,32.45
2023-09-17T18:07:07.446Z,33.18
2023-09-17T18:10:14.398Z,33.35
2023-09-17T18:13:20.780Z,29.05
2023-09-17T18:16:26.871Z,28.65
2023-09-17T18:19:33.539Z,24.50
2023-09-17T18:22:39.839Z,23.18
2023-09-17T18:25:47.043Z,23.35
2023-09-17T18:28:55.268Z,24.87
2023-09-17T18:32:03.887Z,29.00
2023-09-17T18:35:09.546Z,32.15
2023-09-17T18:38:16.317Z,33.18
2023-09-17T18:41:24.304Z,40.45
2023-09-17T18:44:31.254Z,47.15
2023-09-17T18:47:37.092Z,47.25
2023-09-17T18:50:42.916Z,50.75
2023-09-17T18:53:49.903Z,34.65
2023-09-17T18:56:56.734Z,45.78
2023-09-17T19:00:05.165Z,47.67
2023-09-17T19:03:10.547Z,41.48
2023-09-17T19:06:15.975Z,32.80
2023-09-17T19:09:23.346Z,30.52
2023-09-17T19:12:28.789Z,31.10
2023-09-17T19:15:33.778Z,29.52
2023-09-17T19:18:39.836Z,31.85
2023-09-17T19:21:44.785Z,29.40
2023-09-17T19:24:52.088Z,25.75
2023-09-17T19:27:59.197Z,30.25
2023-09-17T19:31:04.858Z,23.35
2023-09-17T19:34:10.723Z,21.60
2023-09-17T19:37:18.265Z,23.98
2023-09-17T19:40:25.357Z,27.45
2023-09-17T19:43:31.237Z,23.75
2023-09-17T19:46:39.808Z,24.10
2023-09-17T19:49:47.904Z,20.97
2023-09-17T19:52:54.474Z,18.75
2023-09-17T19:56:00.150Z,22.13
2023-09-17T19:59:09.689Z,19.35
2023-09-17T20:02:17.486Z,18.50
2023-09-17T20:05:23.645Z,17.85
2023-09-17T20:08:31.115Z,17.42
2023-09-17T20:11:37.373Z,17.37
2023-09-17T20:14:46.213Z,17.10
2023-09-17T20:17:52.614Z,19.82
2023-09-17T20:20:59.185Z,19.40
2023-09-17T20:24:05.619Z,17.45
2023-09-17T20:27:13.026Z,15.93
2023-09-17T20:30:23.445Z,16.27
2023-09-17T20:33:28.900Z,16.02
2023-09-17T20:36:35.707Z,17.15
2023-09-17T20:39:41.764Z,16.62
2023-09-17T20:42:48.462Z,21.95
2023-09-17T20:45:54.333Z,17.50
2023-09-17T20:49:01.391Z,17.80
2023-09-17T20:52:07.028Z,19.82
2023-09-17T20:55:14.533Z,16.32
2023-09-17T20:58:20.889Z,17.62
2023-09-17T21:01:26.764Z,14.28
2023-09-17T21:04:36.481Z,14.93
2023-09-17T21:07:42.478Z,16.12
2023-09-17T21:10:49.552Z,16.55
2023-09-17T21:13:56.866Z,17.57
2023-09-17T21:17:03.275Z,17.05
2023-09-17T21:20:09.478Z,16.27
2023-09-17T21:23:16.962Z,16.40
2023-09-17T21:26:27.112Z,17.00
2023-09-17T21:29:34.300Z,18.32
2023-09-17T21:32:40.886Z,20.23
2023-09-17T21:35:48.470Z,17.52
2023-09-17T21:38:54.205Z,17.05
2023-09-17T21:42:00.390Z,19.20
2023-09-17T21:45:05.937Z,19.95
2023-09-17T21:48:13.029Z,18.23
2023-09-17T21:51:19.500Z,17.00
2023-09-17T21:54:24.823Z,16.70
2023-09-17T21:57:35.610Z,18.17
2023-09-17T22:00:41.265Z,19.27
2023-09-17T22:03:49.298Z,18.45
2023-09-17T22:06:57.047Z,17.77
2023-09-17T22:10:03.038Z,19.17
2023-09-17T22:13:10.109Z,21.87
2023-09-17T22:16:15.096Z,21.90
2023-09-17T22:19:21.409Z,23.15
2023-09-17T22:22:29.044Z,18.73
2023-09-17T22:25:36.528Z,18.45
2023-09-17T22:28:44.691Z,19.30
2023-09-17T22:31:51.433Z,21.57
2023-09-17T22:34:57.479Z,18.30
2023-09-17T22:38:03.132Z,24.00
2023-09-17T22:41:09.102Z,19.15
2023-09-17T22:44:24.113Z,19.55
2023-09-17T22:47:22.692Z,18.67
2023-09-17T22:50:29.353Z,20.82
2023-09-17T22:53:35.059Z,23.12
2023-09-17T22:56:41.508Z,20.80
2023-09-17T22:59:46.786Z,27.80
2023-09-17T23:02:53.241Z,20.68
2023-09-17T23:05:59.070Z,21.25
2023-09-17T23:09:07.073Z,20.97
2023-09-17T23:12:13.869Z,18.62
2023-09-17T23:15:14.621Z,20.43
2023-09-17T23:18:22.717Z,20.60
2023-09-17T23:21:30.249Z,17.12
2023-09-17T23:24:37.292Z,20.43
2023-09-17T23:27:42.847Z,18.73
2023-09-17T23:30:50.654Z,21.27
2023-09-17T23:33:57.548Z,16.57
2023-09-17T23:37:05.725Z,17.15
2023-09-17T23:40:12.842Z,16.57
2023-09-17T23:43:18.263Z,16.10
2023-09-17T23:46:24.154Z,17.60
2023-09-17T23:49:31.974Z,16.57
2023-09-17T23:52:38.092Z,17.37
2023-09-17T23:55:44.056Z,18.37
2023-09-17T23:58:50.763Z,16.95
